Time;durP1;ratioP1;P1;durP2;ratioP2;P2;SDS_P1;SDS_P2;PMS_P1;PMS_P2;Temp;Humidity;BMP_temperature;BMP_pressure;BME280_temperature;BME280_humidity;BME280_pressure;Samples;Min_cycle;Max_cycle;Signal;HPM_P1;HPM_P2
2022/11/05 00:09:29;;;;;;;0.60;0.60;;;8.00;99.90;;;;;;5036132;28;20225;-84
2022/11/05 00:17:36;;;;;;;0.70;0.70;;;8.10;99.90;;;;;;5018738;28;21014;-84
2022/11/05 00:20:03;;;;;;;0.40;0.40;;;8.10;99.90;;;;;;4998032;28;20225;-85
2022/11/05 00:25:17;;;;;;;0.30;0.30;;;8.10;99.90;;;;;;5030831;28;20297;-84
2022/11/05 00:27:49;;;;;;;5.10;0.40;;;8.10;99.90;;;;;;5033640;28;20219;-84
2022/11/05 00:30:18;;;;;;;5.30;1.13;;;8.10;99.90;;;;;;5016285;28;20183;-84
2022/11/05 00:32:46;;;;;;;0.30;0.23;;;8.00;99.90;;;;;;5015641;28;20182;-84
2022/11/05 00:35:12;;;;;;;1.50;1.03;;;8.00;99.90;;;;;;5031980;28;20573;-85
2022/11/05 00:37:38;;;;;;;6.77;0.70;;;8.00;99.90;;;;;;5030815;28;20222;-84
2022/11/05 00:40:05;;;;;;;0.67;0.50;;;7.90;99.90;;;;;;5018273;28;20589;-85
2022/11/05 00:45:15;;;;;;;2.80;1.07;;;7.90;99.90;;;;;;5018945;28;20187;-84
2022/11/05 00:50:26;;;;;;;1.43;0.30;;;7.80;99.90;;;;;;5031351;28;21038;-84
2022/11/05 00:52:59;;;;;;;5.10;1.23;;;7.70;99.90;;;;;;4991047;28;20239;-84
2022/11/05 00:55:37;;;;;;;3.23;0.50;;;7.70;99.90;;;;;;5016765;28;20565;-84
2022/11/05 00:58:05;;;;;;;3.30;1.53;;;7.70;99.90;;;;;;5031235;28;20234;-84
2022/11/05 01:00:33;;;;;;;0.40;0.40;;;7.60;99.90;;;;;;5016555;28;20577;-84
2022/11/05 01:03:02;;;;;;;0.50;0.50;;;7.60;99.90;;;;;;5015721;28;20194;-85
2022/11/05 01:05:29;;;;;;;0.30;0.30;;;7.60;99.90;;;;;;5014944;28;20270;-85
2022/11/05 01:07:55;;;;;;;0.50;0.50;;;7.60;99.90;;;;;;5023400;28;20234;-84
2022/11/05 01:10:21;;;;;;;2.87;0.93;;;7.50;99.90;;;;;;5000720;28;20210;-85
2022/11/05 01:12:48;;;;;;;0.67;0.60;;;7.50;99.90;;;;;;5012092;28;20223;-85
2022/11/05 01:15:14;;;;;;;0.40;0.40;;;7.50;99.90;;;;;;5029951;28;20195;-85
2022/11/05 01:17:40;;;;;;;0.97;0.50;;;7.40;99.90;;;;;;5031601;28;20237;-85
2022/11/05 01:20:06;;;;;;;0.30;0.30;;;7.40;99.90;;;;;;5034206;28;20221;-85
2022/11/05 01:22:32;;;;;;;0.90;0.53;;;7.40;99.90;;;;;;5013637;28;20230;-85
2022/11/05 01:24:58;;;;;;;5.00;0.80;;;7.50;99.90;;;;;;5012465;28;20680;-84
2022/11/05 01:27:23;;;;;;;0.73;0.57;;;7.60;99.90;;;;;;5013697;28;20253;-85
2022/11/05 01:29:49;;;;;;;1.63;1.53;;;7.50;99.90;;;;;;5016435;28;20655;-85
2022/11/05 01:32:15;;;;;;;11.77;1.23;;;7.60;99.90;;;;;;5014083;28;20245;-85
2022/11/05 01:34:41;;;;;;;6.73;0.63;;;7.60;99.90;;;;;;5012745;28;20221;-85
2022/11/05 01:37:06;;;;;;;3.10;0.80;;;7.70;99.90;;;;;;5013039;28;20250;-85
2022/11/05 01:39:32;;;;;;;0.47;0.47;;;7.70;99.90;;;;;;5012127;28;20275;-84
2022/11/05 01:41:58;;;;;;;0.30;0.30;;;7.70;99.90;;;;;;5024881;28;20197;-84
2022/11/05 01:44:49;;;;;;;0.30;0.30;;;7.70;99.90;;;;;;5012005;28;20198;-84
2022/11/05 01:47:35;;;;;;;0.40;0.40;;;7.80;99.90;;;;;;5011492;28;20237;-84
2022/11/05 01:50:26;;;;;;;0.97;0.83;;;7.80;99.90;;;;;;5022302;28;20253;-84
2022/11/05 01:52:58;;;;;;;0.70;0.70;;;7.80;99.90;;;;;;4998518;28;20299;-84
2022/11/05 01:55:27;;;;;;;0.23;0.23;;;8.00;99.90;;;;;;5002316;28;20226;-84
2022/11/05 01:57:56;;;;;;;0.40;0.40;;;8.10;99.90;;;;;;5003079;28;20767;-85
2022/11/05 02:00:22;;;;;;;0.53;0.53;;;8.30;99.90;;;;;;5003661;28;20238;-84
2022/11/05 02:02:47;;;;;;;2.53;0.57;;;8.50;99.90;;;;;;5019290;28;20194;-84
2022/11/05 02:05:14;;;;;;;0.20;0.20;;;8.60;99.90;;;;;;4981973;28;20230;-85
2022/11/05 02:07:44;;;;;;;0.10;0.10;;;8.70;99.90;;;;;;5019250;28;20680;-84
2022/11/05 02:10:13;;;;;;;0.63;0.40;;;8.90;99.90;;;;;;5020798;28;20229;-84
2022/11/05 02:12:43;;;;;;;0.30;0.30;;;9.00;99.90;;;;;;5005075;28;20680;-84
2022/11/05 02:15:11;;;;;;;0.83;0.40;;;9.10;99.90;;;;;;5016968;28;20175;-84
2022/11/05 02:17:40;;;;;;;0.30;0.30;;;9.20;99.90;;;;;;5016893;28;20247;-83
2022/11/05 02:20:27;;;;;;;0.20;0.20;;;9.20;99.90;;;;;;5021472;28;20228;-84
2022/11/05 02:23:24;;;;;;;0.30;0.30;;;9.30;99.90;;;;;;5002016;28;20215;-84
2022/11/05 02:26:08;;;;;;;0.20;0.20;;;9.30;99.90;;;;;;5019517;28;20222;-85
2022/11/05 02:28:56;;;;;;;0.80;0.20;;;9.30;99.90;;;;;;5020233;28;20214;-84
2022/11/05 02:31:31;;;;;;;0.10;0.10;;;9.30;99.90;;;;;;4994267;28;20239;-84
2022/11/05 02:34:15;;;;;;;0.20;0.20;;;9.30;99.90;;;;;;5014624;28;20305;-83
2022/11/05 02:36:44;;;;;;;1.73;0.40;;;9.30;99.90;;;;;;5018455;28;21076;-84
2022/11/05 02:39:28;;;;;;;0.20;0.20;;;9.20;99.90;;;;;;5020416;28;20223;-85
2022/11/05 02:42:24;;;;;;;2.23;0.30;;;9.20;99.90;;;;;;5018781;28;20222;-84
2022/11/05 02:45:04;;;;;;;0.27;0.27;;;9.20;99.90;;;;;;5001550;28;20223;-84
2022/11/05 02:47:41;;;;;;;0.30;0.30;;;9.30;99.90;;;;;;4998619;28;20234;-84
2022/11/05 02:50:19;;;;;;;0.40;0.37;;;9.30;99.90;;;;;;5013788;28;20214;-82
2022/11/05 02:53:17;;;;;;;0.30;0.30;;;9.30;99.90;;;;;;5022529;28;20246;-85
2022/11/05 02:55:58;;;;;;;0.30;0.30;;;9.40;99.90;;;;;;5024817;28;20306;-85
2022/11/05 02:58:27;;;;;;;0.10;0.10;;;9.30;99.90;;;;;;5026773;28;20577;-84
2022/11/05 03:00:57;;;;;;;0.20;0.20;;;9.30;99.90;;;;;;5009027;28;20219;-84
2022/11/05 03:03:26;;;;;;;0.40;0.40;;;9.40;99.90;;;;;;5018811;28;20269;-84
2022/11/05 03:05:51;;;;;;;0.10;0.10;;;9.40;99.90;;;;;;5026554;28;20564;-85
2022/11/05 03:08:48;;;;;;;0.63;0.63;;;9.40;99.90;;;;;;5024357;28;20708;-83
2022/11/05 03:11:18;;;;;;;0.43;0.30;;;9.40;99.90;;;;;;4979490;28;20227;-83
2022/11/05 03:14:12;;;;;;;0.30;0.30;;;9.40;99.90;;;;;;5009167;28;20275;-83
2022/11/05 03:16:41;;;;;;;0.70;0.67;;;9.40;99.90;;;;;;5026543;28;20213;-83
2022/11/05 03:19:15;;;;;;;0.77;0.50;;;9.40;99.90;;;;;;5026687;28;20227;-83
2022/11/05 03:21:59;;;;;;;0.70;0.70;;;9.50;99.90;;;;;;5023046;28;20230;-82
2022/11/05 03:24:34;;;;;;;0.80;0.80;;;9.50;99.90;;;;;;5007004;28;20222;-85
2022/11/05 03:27:06;;;;;;;0.40;0.40;;;9.50;99.90;;;;;;5008339;28;20197;-85
2022/11/05 03:29:41;;;;;;;3.30;0.40;;;9.50;99.90;;;;;;5008556;28;20191;-83
2022/11/05 03:32:09;;;;;;;0.20;0.20;;;9.50;99.90;;;;;;5008306;28;20226;-83
2022/11/05 03:34:44;;;;;;;0.20;0.20;;;9.60;99.90;;;;;;5024343;28;21060;-85
2022/11/05 03:37:10;;;;;;;0.30;0.30;;;9.60;99.90;;;;;;5007168;28;20229;-85
2022/11/05 03:39:43;;;;;;;0.20;0.20;;;9.60;99.90;;;;;;5024034;28;20598;-85
2022/11/05 03:42:14;;;;;;;0.40;0.40;;;9.60;99.90;;;;;;5018546;28;20227;-86
2022/11/05 03:44:46;;;;;;;0.67;0.53;;;9.60;99.90;;;;;;5021255;28;20537;-86
2022/11/05 03:47:18;;;;;;;1.73;1.00;;;9.60;99.90;;;;;;5024743;28;20218;-85
2022/11/05 03:50:10;;;;;;;2.07;0.47;;;9.60;99.90;;;;;;5021453;28;20219;-84
2022/11/05 03:52:44;;;;;;;0.67;0.63;;;9.60;99.90;;;;;;5007221;28;20270;-84
2022/11/05 03:55:10;;;;;;;0.97;0.70;;;9.50;99.90;;;;;;5024809;28;20230;-83
2022/11/05 03:57:40;;;;;;;0.70;0.57;;;9.50;99.90;;;;;;5009098;28;20598;-86
2022/11/05 04:00:08;;;;;;;4.10;0.83;;;9.40;99.90;;;;;;5025422;28;20274;-83
2022/11/05 04:02:34;;;;;;;0.43;0.43;;;9.30;99.90;;;;;;5007497;28;20193;-83
2022/11/05 04:05:00;;;;;;;1.03;0.83;;;9.30;99.90;;;;;;5023753;28;20223;-82
2022/11/05 04:18:23;;;;;;;0.40;0.40;;;9.30;99.90;;;;;;5007716;28;20239;-84
2022/11/05 04:26:22;;;;;;;0.50;0.50;;;9.50;99.90;;;;;;5022743;28;20218;-85
2022/11/05 04:31:35;;;;;;;2.93;0.40;;;9.60;99.90;;;;;;5023537;28;20227;-84
2022/11/05 04:34:01;;;;;;;1.23;1.13;;;9.60;99.90;;;;;;5008026;28;20593;-85
2022/11/05 04:36:27;;;;;;;2.07;0.70;;;9.60;99.90;;;;;;5007166;28;20223;-86
2022/11/05 04:38:53;;;;;;;1.53;0.83;;;9.60;99.90;;;;;;5024062;28;20210;-86
2022/11/05 04:41:19;;;;;;;0.50;0.50;;;9.60;99.90;;;;;;5006880;28;20612;-86
2022/11/05 04:43:44;;;;;;;0.60;0.60;;;9.60;99.90;;;;;;5007755;28;20253;-86
2022/11/05 04:46:10;;;;;;;0.70;0.70;;;9.60;99.90;;;;;;5002108;28;20226;-84
2022/11/05 04:48:36;;;;;;;2.30;0.90;;;9.70;99.90;;;;;;5026291;28;20336;-86
2022/11/05 04:51:03;;;;;;;1.00;0.70;;;9.70;99.90;;;;;;5008456;28;20684;-86
2022/11/05 04:53:30;;;;;;;0.50;0.50;;;9.70;99.90;;;;;;5021035;28;20700;-83
2022/11/05 04:56:18;;;;;;;0.60;0.60;;;9.70;99.90;;;;;;5005342;28;20214;-85
2022/11/05 04:58:44;;;;;;;0.47;0.47;;;9.70;99.90;;;;;;5019529;28;20363;-86
2022/11/05 05:01:18;;;;;;;0.40;0.40;;;9.60;99.90;;;;;;5007608;28;20226;-86
2022/11/05 05:03:49;;;;;;;0.33;0.33;;;9.50;99.90;;;;;;5006326;28;21131;-84
2022/11/05 05:06:16;;;;;;;0.60;0.53;;;9.40;99.90;;;;;;5006145;28;20182;-86
2022/11/05 05:08:42;;;;;;;0.60;0.50;;;9.40;99.90;;;;;;5021915;28;20218;-86
2022/11/05 05:11:11;;;;;;;0.40;0.40;;;9.30;99.90;;;;;;5023294;28;20256;-86
2022/11/05 05:13:36;;;;;;;0.60;0.60;;;9.30;99.90;;;;;;5022142;28;20273;-86
2022/11/05 05:16:07;;;;;;;3.17;1.10;;;9.20;99.90;;;;;;4998525;28;20258;-87
2022/11/05 05:18:33;;;;;;;2.67;1.30;;;9.10;99.90;;;;;;4987780;28;20223;-84
2022/11/05 05:23:46;;;;;;;0.63;0.63;;;9.00;99.90;;;;;;5008046;28;20191;-86
2022/11/05 05:26:12;;;;;;;0.50;0.50;;;8.90;99.90;;;;;;5022249;28;20218;-86
2022/11/05 05:28:37;;;;;;;0.63;0.60;;;8.80;99.90;;;;;;4985077;28;20692;-86
2022/11/05 05:31:03;;;;;;;1.10;1.10;;;8.70;99.90;;;;;;5005821;28;20253;-83
2022/11/05 05:33:29;;;;;;;0.63;0.63;;;8.70;99.90;;;;;;5004547;28;20563;-86
2022/11/05 05:35:58;;;;;;;0.80;0.80;;;8.70;99.90;;;;;;5015095;28;21013;-86
2022/11/05 05:38:24;;;;;;;0.50;0.40;;;8.70;99.90;;;;;;5004823;28;20234;-85
2022/11/05 05:40:50;;;;;;;0.80;0.70;;;8.70;99.90;;;;;;5014484;28;20612;-85
2022/11/05 05:43:16;;;;;;;0.60;0.60;;;8.70;99.90;;;;;;5023645;28;20233;-86
2022/11/05 05:45:42;;;;;;;1.67;1.20;;;8.60;99.90;;;;;;5022106;28;20226;-85
2022/11/05 05:48:08;;;;;;;4.80;1.17;;;8.60;99.90;;;;;;5007763;28;20606;-84
2022/11/05 05:50:34;;;;;;;0.57;0.57;;;8.60;99.90;;;;;;5022437;28;20788;-85
2022/11/05 05:53:00;;;;;;;0.50;0.50;;;8.60;99.90;;;;;;4986195;28;20246;-85
2022/11/05 05:55:25;;;;;;;0.30;0.30;;;8.60;99.90;;;;;;5014835;28;20234;-84
2022/11/05 05:57:52;;;;;;;0.97;0.63;;;8.60;99.90;;;;;;5005258;28;20247;-84
2022/11/05 06:00:18;;;;;;;3.43;1.20;;;8.60;99.90;;;;;;5022462;28;20233;-86
2022/11/05 06:02:43;;;;;;;0.37;0.37;;;8.50;99.90;;;;;;5006554;28;20195;-86
2022/11/05 06:05:09;;;;;;;1.63;1.53;;;8.50;99.90;;;;;;4986322;28;20729;-84
2022/11/05 06:07:35;;;;;;;0.87;0.87;;;8.50;99.90;;;;;;5006952;28;20214;-86
2022/11/05 06:10:01;;;;;;;1.17;1.17;;;8.50;99.90;;;;;;4995720;28;20226;-84
2022/11/05 06:12:30;;;;;;;0.80;0.80;;;8.50;99.90;;;;;;4986184;28;21120;-85
2022/11/05 06:14:56;;;;;;;0.50;0.50;;;8.50;99.90;;;;;;5002210;28;20195;-84
2022/11/05 06:17:21;;;;;;;0.43;0.40;;;8.50;99.90;;;;;;4987366;28;20191;-85
2022/11/05 06:19:47;;;;;;;1.80;1.10;;;8.40;99.90;;;;;;5010498;28;20590;-83
2022/11/05 06:22:13;;;;;;;0.30;0.30;;;8.50;99.90;;;;;;5000818;28;20304;-84
2022/11/05 06:24:38;;;;;;;1.30;1.17;;;8.50;99.90;;;;;;5002072;28;20704;-86
2022/11/05 06:27:04;;;;;;;0.47;0.43;;;8.50;99.90;;;;;;5009792;28;20597;-87
2022/11/05 06:29:30;;;;;;;0.80;0.80;;;8.60;99.90;;;;;;4997467;28;20194;-84
2022/11/05 06:31:56;;;;;;;0.77;0.77;;;8.60;99.90;;;;;;5002424;28;20228;-84
2022/11/05 06:34:21;;;;;;;1.07;0.80;;;8.50;99.90;;;;;;4991154;28;21071;-84
2022/11/05 06:36:47;;;;;;;0.63;0.63;;;8.50;99.90;;;;;;5011472;28;20222;-85
2022/11/05 06:39:13;;;;;;;1.80;1.17;;;8.50;99.90;;;;;;5010156;28;20217;-84
2022/11/05 06:41:38;;;;;;;0.40;0.40;;;8.50;99.90;;;;;;5010735;28;20183;-85
2022/11/05 06:44:04;;;;;;;0.67;0.40;;;8.60;99.90;;;;;;5002459;28;20222;-84
2022/11/05 06:46:30;;;;;;;2.00;1.20;;;8.60;99.90;;;;;;5012890;28;20223;-86
2022/11/05 06:48:55;;;;;;;0.70;0.70;;;8.60;99.90;;;;;;5009416;28;20231;-84
2022/11/05 06:51:22;;;;;;;1.60;0.83;;;8.70;99.90;;;;;;5008206;28;20227;-84
2022/11/05 06:53:48;;;;;;;1.60;1.50;;;8.90;99.90;;;;;;4993521;28;20235;-87
2022/11/05 06:56:14;;;;;;;2.10;1.97;;;9.20;99.90;;;;;;5003059;28;20677;-85
2022/11/05 06:58:39;;;;;;;6.10;3.03;;;9.50;99.90;;;;;;5022784;28;20636;-85
2022/11/05 07:01:08;;;;;;;4.10;2.43;;;9.90;99.90;;;;;;5025396;28;20226;-86
2022/11/05 07:03:35;;;;;;;1.53;1.43;;;10.20;99.90;;;;;;5003846;28;20301;-85
2022/11/05 07:06:01;;;;;;;2.23;1.30;;;10.50;99.90;;;;;;5019149;28;20188;-85
2022/11/05 07:08:32;;;;;;;3.37;3.13;;;10.90;99.90;;;;;;5026108;28;20205;-84
2022/11/05 07:10:58;;;;;;;1.67;1.53;;;11.10;99.90;;;;;;5020999;28;20589;-87
2022/11/05 07:13:25;;;;;;;4.10;1.97;;;11.30;99.90;;;;;;5005440;28;20219;-86
2022/11/05 07:15:50;;;;;;;0.80;0.80;;;11.50;99.90;;;;;;5005794;28;20218;-86
2022/11/05 07:18:16;;;;;;;4.27;1.27;;;11.40;99.90;;;;;;5010029;28;20272;-87
2022/11/05 07:20:42;;;;;;;1.67;1.57;;;11.60;99.90;;;;;;5028001;28;20252;-87
2022/11/05 07:23:13;;;;;;;0.80;0.80;;;11.80;99.90;;;;;;4996264;28;20211;-87
2022/11/05 07:25:39;;;;;;;0.97;0.87;;;11.60;99.90;;;;;;5012176;28;20227;-87
2022/11/05 07:28:06;;;;;;;1.53;1.43;;;11.20;99.90;;;;;;5005809;28;20230;-88
2022/11/05 07:30:33;;;;;;;6.97;0.73;;;10.90;99.90;;;;;;5027302;28;20672;-87
2022/11/05 07:32:59;;;;;;;0.50;0.50;;;10.70;99.90;;;;;;4999521;28;20199;-86
2022/11/05 07:35:25;;;;;;;1.07;0.80;;;10.50;99.90;;;;;;5000724;28;20197;-87
2022/11/05 07:37:54;;;;;;;0.77;0.70;;;10.30;99.90;;;;;;5010657;28;20612;-84
2022/11/05 07:40:22;;;;;;;1.70;1.00;;;10.30;99.90;;;;;;4987578;28;20246;-89
2022/11/05 07:42:53;;;;;;;1.07;0.90;;;10.30;99.90;;;;;;5020937;28;20219;-88
2022/11/05 07:45:19;;;;;;;0.60;0.60;;;10.30;99.90;;;;;;5007715;28;20215;-88
2022/11/05 07:47:51;;;;;;;1.13;1.10;;;10.30;99.90;;;;;;5019950;28;20190;-87
2022/11/05 07:50:18;;;;;;;4.37;1.13;;;10.30;99.90;;;;;;5033366;28;20665;-88
2022/11/05 07:52:44;;;;;;;1.93;1.20;;;10.30;99.90;;;;;;5027585;28;20263;-88
2022/11/05 07:55:12;;;;;;;0.40;0.40;;;10.30;99.90;;;;;;5014088;28;20245;-88
2022/11/05 07:57:45;;;;;;;0.70;0.70;;;10.30;99.90;;;;;;5021984;28;20230;-90
2022/11/05 08:00:14;;;;;;;1.40;1.10;;;10.40;99.90;;;;;;5026400;28;20235;-89
2022/11/05 08:02:40;;;;;;;2.50;1.23;;;10.50;99.90;;;;;;5007476;28;20699;-90
2022/11/05 08:05:06;;;;;;;0.60;0.60;;;10.60;99.90;;;;;;5004814;28;20218;-88
2022/11/05 08:07:32;;;;;;;0.60;0.60;;;10.60;99.90;;;;;;5005381;28;20276;-91
2022/11/05 08:09:58;;;;;;;0.50;0.50;;;10.60;99.90;;;;;;5016571;28;20219;-91
2022/11/05 08:12:24;;;;;;;1.30;1.20;;;10.60;99.90;;;;;;4992804;28;20540;-90
2022/11/05 08:14:50;;;;;;;2.17;1.70;;;10.60;99.90;;;;;;4998523;28;20200;-89
2022/11/05 08:17:17;;;;;;;7.30;1.80;;;10.60;99.90;;;;;;4994534;28;20237;-87
2022/11/05 08:19:43;;;;;;;0.80;0.63;;;10.70;99.90;;;;;;5020481;28;20292;-86
2022/11/05 08:22:09;;;;;;;2.80;1.17;;;10.60;99.90;;;;;;5023860;28;20288;-89
2022/11/05 08:24:34;;;;;;;1.70;0.83;;;10.70;99.90;;;;;;5024033;28;20734;-87
2022/11/05 08:27:00;;;;;;;2.73;0.80;;;10.60;99.90;;;;;;5004805;28;20191;-90
2022/11/05 08:29:26;;;;;;;0.93;0.67;;;10.70;99.90;;;;;;4992691;28;20191;-86
2022/11/05 08:31:51;;;;;;;0.93;0.90;;;10.60;99.90;;;;;;5020094;28;20226;-87
2022/11/05 08:34:17;;;;;;;1.70;0.70;;;10.70;99.90;;;;;;5002440;28;20802;-86
2022/11/05 08:36:45;;;;;;;0.97;0.97;;;10.70;99.90;;;;;;5018556;28;20215;-85
2022/11/05 08:39:17;;;;;;;1.10;0.47;;;10.80;99.90;;;;;;5009516;28;21078;-91
2022/11/05 08:41:43;;;;;;;1.23;0.87;;;11.00;99.90;;;;;;5002372;28;20312;-90
2022/11/05 08:44:09;;;;;;;1.07;0.93;;;11.00;99.90;;;;;;5004214;28;20704;-88
2022/11/05 08:46:35;;;;;;;5.07;1.93;;;11.30;99.90;;;;;;5001367;28;20211;-89
2022/11/05 08:49:02;;;;;;;1.83;0.40;;;11.50;99.90;;;;;;4989539;28;20250;-91
2022/11/05 08:51:27;;;;;;;0.97;0.70;;;11.60;99.90;;;;;;5002207;28;20214;-86
2022/11/05 08:53:53;;;;;;;0.40;0.40;;;11.90;99.90;;;;;;4987105;28;20731;-86
2022/11/05 08:56:19;;;;;;;0.47;0.47;;;11.90;99.90;;;;;;5004925;28;20233;-84
2022/11/05 08:58:45;;;;;;;1.00;0.70;;;11.90;99.90;;;;;;4985716;28;20238;-87
2022/11/05 09:01:11;;;;;;;0.57;0.50;;;11.80;99.90;;;;;;5020685;28;20276;-86
2022/11/05 09:03:42;;;;;;;0.40;0.40;;;11.90;99.90;;;;;;5048230;27;1359993;-88
2022/11/05 09:06:08;;;;;;;0.60;0.60;;;11.80;99.90;;;;;;5052987;28;20228;-87
2022/11/05 09:08:33;;;;;;;1.07;0.70;;;11.80;99.90;;;;;;5053441;28;20204;-87
2022/11/05 09:10:59;;;;;;;0.40;0.40;;;11.80;99.90;;;;;;5070601;28;20216;-87
2022/11/05 09:13:26;;;;;;;2.93;0.77;;;11.80;99.90;;;;;;5092023;28;20220;-88
2022/11/05 09:15:51;;;;;;;0.50;0.50;;;11.80;99.90;;;;;;5092150;28;20556;-87
2022/11/05 09:18:19;;;;;;;2.03;0.80;;;12.00;99.90;;;;;;5076778;28;20211;-88
2022/11/05 09:20:45;;;;;;;0.30;0.30;;;12.10;99.90;;;;;;5109087;28;20244;-88
2022/11/05 09:23:13;;;;;;;0.30;0.30;;;12.10;99.90;;;;;;5090851;28;20237;-89
2022/11/05 09:25:39;;;;;;;0.77;0.60;;;12.10;99.90;;;;;;5090260;28;20756;-89
2022/11/05 09:28:13;;;;;;;0.67;0.57;;;12.10;99.90;;;;;;5094119;28;20219;-88
2022/11/05 09:30:44;;;;;;;0.70;0.50;;;12.00;99.90;;;;;;5092445;28;20231;-89
2022/11/05 09:33:10;;;;;;;0.53;0.53;;;12.10;99.90;;;;;;5092893;28;20184;-86
2022/11/05 09:35:40;;;;;;;0.90;0.80;;;12.10;99.90;;;;;;5093120;28;20279;-87
2022/11/05 09:38:07;;;;;;;0.50;0.50;;;12.30;99.90;;;;;;5092524;28;20682;-90
2022/11/05 09:40:40;;;;;;;0.73;0.50;;;12.40;99.90;;;;;;5092013;28;20787;-87
2022/11/05 09:43:06;;;;;;;5.43;0.50;;;12.60;99.90;;;;;;5092161;28;20239;-88
2022/11/05 09:45:34;;;;;;;0.53;0.53;;;12.70;99.90;;;;;;5093069;28;20212;-89
2022/11/05 09:48:15;;;;;;;0.83;0.70;;;12.80;99.90;;;;;;5075740;28;20591;-88
2022/11/05 09:50:44;;;;;;;0.90;0.90;;;12.80;99.90;;;;;;5090838;28;20435;-88
2022/11/05 09:53:16;;;;;;;0.57;0.57;;;12.80;99.90;;;;;;5091648;28;20224;-89
2022/11/05 09:55:46;;;;;;;1.07;1.07;;;12.80;99.90;;;;;;5091884;28;20218;-89
2022/11/05 09:58:17;;;;;;;1.57;1.30;;;12.80;99.90;;;;;;5092439;28;20243;-87
2022/11/05 10:00:44;;;;;;;0.63;0.63;;;12.80;99.90;;;;;;5092626;28;21047;-87
2022/11/05 10:03:16;;;;;;;3.57;0.87;;;12.90;99.90;;;;;;5091794;28;20379;-87
2022/11/05 10:05:44;;;;;;;1.10;1.00;;;13.10;99.90;;;;;;5092759;28;20918;-85
2022/11/05 10:08:16;;;;;;;1.30;0.83;;;13.40;99.90;;;;;;5090504;28;20216;-85
2022/11/05 10:10:53;;;;;;;6.63;1.17;;;13.60;99.90;;;;;;5093138;28;20252;-85
2022/11/05 10:13:51;;;;;;;0.77;0.70;;;13.60;99.90;;;;;;5092610;28;20243;-86
2022/11/05 10:16:27;;;;;;;2.00;0.93;;;13.60;99.90;;;;;;5075609;28;20220;-87
2022/11/05 10:19:23;;;;;;;1.23;0.80;;;13.50;99.90;;;;;;5077465;28;20734;-86
2022/11/05 10:21:53;;;;;;;3.40;0.90;;;13.50;99.90;;;;;;5077718;28;20225;-85
2022/11/05 10:24:20;;;;;;;1.00;0.77;;;13.60;99.90;;;;;;5080015;28;20225;-85
2022/11/05 10:26:49;;;;;;;0.70;0.70;;;13.70;99.90;;;;;;5102152;28;20199;-86
2022/11/05 10:29:38;;;;;;;4.27;0.80;;;13.90;99.90;;;;;;5081345;28;20212;-87
2022/11/05 10:32:04;;;;;;;2.43;1.30;;;13.90;99.90;;;;;;5076727;28;20807;-86
2022/11/05 10:34:36;;;;;;;1.17;1.07;;;13.90;99.90;;;;;;5076389;28;20217;-87
2022/11/05 10:37:02;;;;;;;7.23;1.67;;;14.10;99.90;;;;;;5077535;28;20231;-87
2022/11/05 10:39:30;;;;;;;2.90;0.80;;;14.00;99.90;;;;;;5077251;28;20224;-86
2022/11/05 10:42:19;;;;;;;3.43;1.23;;;14.00;99.90;;;;;;5075171;28;20282;-84
2022/11/05 10:45:13;;;;;;;2.83;2.03;;;14.00;99.90;;;;;;5078040;28;20242;-87
2022/11/05 10:47:56;;;;;;;7.43;1.60;;;14.10;99.90;;;;;;5078035;28;20294;-86
2022/11/05 10:50:25;;;;;;;5.43;0.93;;;14.10;99.90;;;;;;5078238;28;20449;-87
2022/11/05 10:53:02;;;;;;;1.00;1.00;;;14.10;99.90;;;;;;5078829;28;20231;-86
2022/11/05 10:55:41;;;;;;;5.90;1.10;;;14.20;99.90;;;;;;5077680;28;20216;-85
2022/11/05 10:58:17;;;;;;;1.00;0.90;;;14.30;99.90;;;;;;5078074;28;20286;-86
2022/11/05 11:00:58;;;;;;;1.40;1.07;;;14.40;99.90;;;;;;5076897;28;20227;-86
2022/11/05 11:03:33;;;;;;;3.40;1.23;;;14.20;99.90;;;;;;5093322;28;20770;-84
2022/11/05 11:06:06;;;;;;;2.90;1.23;;;14.10;99.90;;;;;;5077981;28;20197;-85
2022/11/05 11:08:35;;;;;;;1.23;0.70;;;14.10;99.90;;;;;;5077037;28;20184;-86
2022/11/05 11:11:12;;;;;;;3.03;0.70;;;14.30;99.90;;;;;;5077463;28;20248;-84
2022/11/05 11:13:50;;;;;;;0.80;0.50;;;14.60;99.90;;;;;;5076173;28;20252;-86
2022/11/05 11:16:21;;;;;;;1.20;0.97;;;15.00;99.90;;;;;;5076911;28;20674;-87
2022/11/05 11:18:59;;;;;;;1.03;0.83;;;15.30;99.90;;;;;;5074992;28;20223;-85
2022/11/05 11:21:27;;;;;;;0.67;0.67;;;15.60;99.90;;;;;;5074204;28;20215;-86
2022/11/05 11:24:01;;;;;;;0.87;0.70;;;15.20;99.90;;;;;;5077011;28;20189;-85
2022/11/05 11:26:36;;;;;;;3.77;1.13;;;14.70;99.90;;;;;;5075035;28;20212;-85
2022/11/05 11:29:27;;;;;;;4.63;1.67;;;14.20;99.90;;;;;;5077394;28;20712;-85
2022/11/05 11:31:57;;;;;;;1.60;1.37;;;14.00;99.90;;;;;;5076379;28;20347;-86
2022/11/05 11:34:29;;;;;;;1.77;1.67;;;13.90;99.90;;;;;;5091491;28;20212;-85
2022/11/05 11:37:03;;;;;;;2.13;1.00;;;13.70;99.90;;;;;;5077560;28;20215;-87
2022/11/05 11:39:30;;;;;;;0.70;0.70;;;13.50;99.90;;;;;;5072903;28;20306;-87
2022/11/05 11:42:04;;;;;;;3.43;0.70;;;13.30;99.90;;;;;;5074163;28;21010;-86
2022/11/05 11:44:33;;;;;;;3.57;1.67;;;13.10;99.90;;;;;;5078174;28;20296;-85
2022/11/05 11:47:09;;;;;;;0.77;0.60;;;13.00;99.90;;;;;;5074708;28;20217;-86
2022/11/05 11:49:40;;;;;;;1.80;0.60;;;13.00;99.90;;;;;;5076927;28;20222;-86
2022/11/05 11:52:13;;;;;;;2.63;0.83;;;13.00;99.90;;;;;;5076166;28;20221;-86
2022/11/05 11:54:39;;;;;;;13.63;6.30;;;13.00;99.90;;;;;;5076410;28;20217;-87
2022/11/05 11:57:26;;;;;;;6.20;3.17;;;13.00;99.90;;;;;;5076346;28;20238;-86
2022/11/05 11:59:57;;;;;;;3.20;2.90;;;12.90;99.90;;;;;;5075003;28;20240;-87
2022/11/05 12:02:52;;;;;;;3.73;2.43;;;12.90;99.90;;;;;;5076368;28;20241;-82
2022/11/05 12:05:31;;;;;;;2.23;1.10;;;12.90;99.90;;;;;;5072637;28;20235;-82
2022/11/05 12:08:06;;;;;;;3.30;3.00;;;12.90;99.90;;;;;;5076356;28;20262;-82
2022/11/05 12:10:44;;;;;;;10.90;5.83;;;12.80;99.90;;;;;;5075056;28;20220;-81
2022/11/05 12:13:50;;;;;;;6.83;5.97;;;12.80;99.90;;;;;;5074741;28;20221;-83
2022/11/05 12:16:31;;;;;;;2.63;1.83;;;12.80;99.90;;;;;;5089599;28;20236;-83
2022/11/05 12:19:23;;;;;;;2.40;2.00;;;12.80;99.90;;;;;;5074675;28;20295;-82
2022/11/05 12:21:57;;;;;;;3.87;3.17;;;12.80;99.90;;;;;;5075357;28;20239;-83
2022/11/05 12:24:31;;;;;;;1.43;0.70;;;12.90;99.90;;;;;;5071676;28;20225;-81
2022/11/05 12:27:18;;;;;;;11.57;1.43;;;12.90;99.90;;;;;;5074543;28;20225;-81
2022/11/05 12:29:54;;;;;;;1.23;1.13;;;12.90;99.90;;;;;;5073212;28;20181;-84
2022/11/05 12:32:44;;;;;;;0.30;0.30;;;12.90;99.90;;;;;;5073945;28;20224;-84
2022/11/05 12:35:28;;;;;;;1.03;1.00;;;12.90;99.90;;;;;;5071916;28;20578;-80
2022/11/05 12:37:54;;;;;;;1.17;1.07;;;12.70;99.90;;;;;;5071841;28;20223;-83
2022/11/05 12:40:32;;;;;;;0.53;0.53;;;12.60;99.90;;;;;;5071224;28;20212;-81
2022/11/05 12:43:18;;;;;;;1.53;1.00;;;12.60;99.90;;;;;;5073830;28;20236;-83
2022/11/05 12:46:19;;;;;;;0.93;0.93;;;12.50;99.90;;;;;;5075858;28;20277;-88
2022/11/05 12:49:10;;;;;;;1.17;0.90;;;12.50;99.90;;;;;;5074048;28;20235;-92
2022/11/05 12:51:57;;;;;;;1.00;1.00;;;12.60;99.90;;;;;;5075742;28;20217;-86
2022/11/05 12:54:39;;;;;;;8.43;1.20;;;12.60;99.90;;;;;;5075005;28;20225;-90
2022/11/05 12:57:10;;;;;;;1.27;1.20;;;12.60;99.90;;;;;;5072881;28;20185;-91
2022/11/05 12:59:49;;;;;;;0.87;0.83;;;12.60;99.90;;;;;;5079503;28;20191;-90
2022/11/05 13:02:19;;;;;;;3.07;1.23;;;12.70;99.90;;;;;;5077449;28;20247;-91
2022/11/05 13:05:12;;;;;;;2.37;1.37;;;12.70;99.90;;;;;;5092570;28;20217;-91
2022/11/05 13:07:55;;;;;;;4.73;1.77;;;12.70;99.90;;;;;;5074438;28;20270;-91
2022/11/05 13:10:33;;;;;;;3.20;1.70;;;12.70;99.90;;;;;;5068441;28;20299;-91
2022/11/05 13:13:40;;;;;;;2.73;1.67;;;12.70;99.90;;;;;;5075327;28;20236;-91
2022/11/05 13:16:19;;;;;;;1.73;1.63;;;12.80;99.90;;;;;;5078305;28;20277;-90
2022/11/05 13:19:13;;;;;;;1.30;1.20;;;12.90;99.90;;;;;;5075977;28;20657;-90
2022/11/05 13:21:41;;;;;;;1.90;1.27;;;12.90;99.90;;;;;;5038970;28;20227;-90
2022/11/05 13:24:29;;;;;;;1.67;0.93;;;12.90;99.90;;;;;;5074273;28;20543;-89
2022/11/05 13:27:33;;;;;;;4.30;2.20;;;13.00;99.90;;;;;;5072565;28;20185;-92
2022/11/05 13:30:04;;;;;;;1.67;1.00;;;13.10;99.90;;;;;;5075040;28;20229;-91
2022/11/05 13:32:34;;;;;;;1.93;1.60;;;13.00;99.90;;;;;;5074263;28;20309;-93
2022/11/05 13:35:03;;;;;;;1.93;1.00;;;13.00;99.90;;;;;;5073548;28;20248;-90
2022/11/05 13:40:38;;;;;;;2.27;1.40;;;13.00;99.90;;;;;;5074565;28;20384;-92
2022/11/05 13:43:23;;;;;;;2.87;1.17;;;12.90;99.90;;;;;;5074904;28;20280;-93
2022/11/05 13:46:27;;;;;;;1.93;1.20;;;12.90;99.90;;;;;;5076462;28;20212;-92
2022/11/05 13:49:17;;;;;;;5.50;1.83;;;12.80;99.90;;;;;;5074567;28;20213;-88
2022/11/05 13:52:14;;;;;;;2.03;1.27;;;12.80;99.90;;;;;;5079662;28;20224;-90
2022/11/05 13:55:31;;;;;;;1.67;1.20;;;12.70;99.90;;;;;;5056351;28;20221;-92
2022/11/05 13:58:24;;;;;;;2.30;2.13;;;12.70;99.90;;;;;;5044583;28;20255;-90
2022/11/05 14:01:27;;;;;;;1.77;0.63;;;12.70;99.90;;;;;;5078661;28;20240;-90
2022/11/05 14:03:55;;;;;;;2.37;1.40;;;12.60;99.90;;;;;;5075004;28;20236;-92